Time;durP1;ratioP1;P1;durP2;ratioP2;P2;SDS_P1;SDS_P2;PMS_P1;PMS_P2;Temp;Humidity;BMP_temperature;BMP_pressure;BME280_temperature;BME280_humidity;BME280_pressure;Samples;Min_cycle;Max_cycle;Signal;HPM_P1;HPM_P2
2021/01/09 00:00:45;;;;;;;6.50;4.68;;;;;;;;;;5045577;28;20048;-77
2021/01/09 00:03:14;;;;;;;6.60;4.93;;;;;;;;;;5062972;28;20049;-76
2021/01/09 00:05:40;;;;;;;7.32;5.32;;;;;;;;;;5047399;28;20530;-76
2021/01/09 00:08:09;;;;;;;7.80;5.40;;;;;;;;;;5051873;28;20037;-76
2021/01/09 00:10:38;;;;;;;5.70;4.57;;;;;;;;;;5050397;28;20041;-76
2021/01/09 00:13:06;;;;;;;8.05;5.07;;;;;;;;;;5038369;28;20056;-76
2021/01/09 00:15:32;;;;;;;6.03;4.45;;;;;;;;;;5045686;28;20076;-76
2021/01/09 00:17:59;;;;;;;5.97;4.47;;;;;;;;;;5046401;28;20048;-76
2021/01/09 00:20:28;;;;;;;6.22;4.63;;;;;;;;;;5047921;28;20419;-76
2021/01/09 00:22:54;;;;;;;5.95;4.13;;;;;;;;;;5046803;28;20055;-76
2021/01/09 00:25:20;;;;;;;7.43;4.35;;;;;;;;;;5042695;28;20073;-78
2021/01/09 00:27:46;;;;;;;7.82;5.05;;;;;;;;;;5041814;28;20167;-79
2021/01/09 00:30:13;;;;;;;6.95;4.18;;;;;;;;;;5043326;28;20053;-78
2021/01/09 00:32:42;;;;;;;7.20;4.50;;;;;;;;;;5050372;28;20041;-80
2021/01/09 00:35:09;;;;;;;8.25;4.82;;;;;;;;;;5048960;28;20063;-75
2021/01/09 00:37:35;;;;;;;7.97;4.65;;;;;;;;;;5057094;28;20052;-75
2021/01/09 00:40:01;;;;;;;6.40;4.57;;;;;;;;;;5051732;28;20528;-76
2021/01/09 00:42:28;;;;;;;5.50;4.20;;;;;;;;;;5054614;28;20128;-75
2021/01/09 00:44:54;;;;;;;6.03;4.38;;;;;;;;;;5053029;28;20110;-76
2021/01/09 00:47:20;;;;;;;8.38;4.28;;;;;;;;;;5054761;28;20057;-75
2021/01/09 00:49:46;;;;;;;6.68;4.28;;;;;;;;;;5050682;28;20049;-75
2021/01/09 00:52:12;;;;;;;7.00;4.78;;;;;;;;;;5047945;28;20081;-75
2021/01/09 00:54:39;;;;;;;9.85;4.55;;;;;;;;;;5057883;28;20398;-76
2021/01/09 00:57:05;;;;;;;6.45;4.07;;;;;;;;;;5053192;28;20053;-77
2021/01/09 00:59:31;;;;;;;5.45;3.75;;;;;;;;;;5057937;28;20080;-77
2021/01/09 01:01:57;;;;;;;5.25;3.75;;;;;;;;;;5052862;28;20182;-78
2021/01/09 01:04:24;;;;;;;7.68;5.05;;;;;;;;;;5052117;28;20053;-77
2021/01/09 01:06:50;;;;;;;6.70;3.75;;;;;;;;;;5053568;28;20071;-77
2021/01/09 01:09:17;;;;;;;7.47;3.80;;;;;;;;;;5048021;28;20067;-78
2021/01/09 01:11:43;;;;;;;6.97;4.35;;;;;;;;;;5048979;28;20049;-77
2021/01/09 01:14:09;;;;;;;6.93;4.00;;;;;;;;;;5050546;28;20056;-76
2021/01/09 01:16:35;;;;;;;6.40;4.20;;;;;;;;;;5052797;28;20040;-76
2021/01/09 01:19:02;;;;;;;8.05;4.28;;;;;;;;;;5057770;28;20044;-76
2021/01/09 01:21:28;;;;;;;5.97;4.60;;;;;;;;;;5055789;28;20049;-73
2021/01/09 01:23:54;;;;;;;7.35;4.60;;;;;;;;;;5055236;28;20123;-74
2021/01/09 01:26:20;;;;;;;8.40;3.97;;;;;;;;;;5050043;28;20041;-75
2021/01/09 01:28:49;;;;;;;11.13;4.47;;;;;;;;;;5051734;28;20136;-74
2021/01/09 01:31:16;;;;;;;5.95;3.90;;;;;;;;;;5049373;28;20418;-74
2021/01/09 01:33:42;;;;;;;6.25;3.80;;;;;;;;;;5054301;28;20498;-74
2021/01/09 01:36:09;;;;;;;6.35;3.95;;;;;;;;;;5051617;28;20293;-74
2021/01/09 01:38:38;;;;;;;5.13;3.47;;;;;;;;;;5054907;28;20055;-74
2021/01/09 01:41:07;;;;;;;6.53;4.03;;;;;;;;;;5055443;28;20123;-74
2021/01/09 01:43:36;;;;;;;5.63;3.50;;;;;;;;;;5043090;28;20384;-73
2021/01/09 01:46:03;;;;;;;5.35;3.60;;;;;;;;;;5052650;28;20181;-74
2021/01/09 01:48:30;;;;;;;6.68;4.60;;;;;;;;;;5049117;28;20052;-74
2021/01/09 01:50:56;;;;;;;5.85;3.75;;;;;;;;;;5053624;28;20447;-74
2021/01/09 01:53:25;;;;;;;4.80;3.55;;;;;;;;;;5049392;28;20068;-74
2021/01/09 01:55:51;;;;;;;4.93;3.47;;;;;;;;;;5050980;28;20625;-74
2021/01/09 01:58:17;;;;;;;4.85;3.70;;;;;;;;;;5056692;28;20055;-73
2021/01/09 02:00:49;;;;;;;6.25;3.58;;;;;;;;;;5050688;28;20071;-74
2021/01/09 02:03:19;;;;;;;5.05;3.28;;;;;;;;;;5050371;28;20045;-74
2021/01/09 02:05:57;;;;;;;6.30;3.60;;;;;;;;;;5045530;28;20041;-73
2021/01/09 02:08:39;;;;;;;8.80;3.63;;;;;;;;;;5049018;28;20052;-75
2021/01/09 02:11:09;;;;;;;6.10;3.65;;;;;;;;;;5050243;28;20135;-73
2021/01/09 02:13:46;;;;;;;5.97;3.28;;;;;;;;;;5051676;28;20044;-73
2021/01/09 02:16:13;;;;;;;5.80;3.65;;;;;;;;;;5055032;28;20136;-73
2021/01/09 02:18:40;;;;;;;5.15;3.33;;;;;;;;;;5049948;28;20132;-74
2021/01/09 02:21:30;;;;;;;5.70;3.75;;;;;;;;;;5049086;28;20132;-73
2021/01/09 02:23:56;;;;;;;6.85;3.53;;;;;;;;;;5047962;28;20045;-74
2021/01/09 02:26:22;;;;;;;4.95;3.38;;;;;;;;;;5053508;28;20052;-74
2021/01/09 02:28:48;;;;;;;5.13;3.28;;;;;;;;;;5053270;28;20059;-74
2021/01/09 02:31:18;;;;;;;4.53;3.20;;;;;;;;;;5046858;28;20472;-75
2021/01/09 02:33:46;;;;;;;5.53;3.35;;;;;;;;;;5054884;28;20048;-75
2021/01/09 02:36:12;;;;;;;5.55;3.15;;;;;;;;;;5045497;28;20521;-75
2021/01/09 02:38:42;;;;;;;5.05;3.13;;;;;;;;;;5048927;28;20391;-76
2021/01/09 02:41:09;;;;;;;5.10;3.60;;;;;;;;;;5056319;28;20052;-73
2021/01/09 02:43:36;;;;;;;5.25;3.22;;;;;;;;;;5059107;28;20139;-73
2021/01/09 02:46:02;;;;;;;5.43;3.72;;;;;;;;;;5057834;28;20462;-73
2021/01/09 02:48:29;;;;;;;7.28;3.35;;;;;;;;;;5056050;28;20060;-73
2021/01/09 02:50:55;;;;;;;4.32;3.10;;;;;;;;;;5056932;28;20051;-73
2021/01/09 02:53:31;;;;;;;4.25;3.20;;;;;;;;;;5049138;28;20045;-71
2021/01/09 02:55:57;;;;;;;4.78;3.42;;;;;;;;;;5050623;28;20588;-72
2021/01/09 02:58:26;;;;;;;5.35;3.53;;;;;;;;;;5049971;28;20404;-72
2021/01/09 03:00:52;;;;;;;4.43;3.45;;;;;;;;;;5051000;28;20154;-72
2021/01/09 03:03:18;;;;;;;5.18;3.40;;;;;;;;;;5048877;28;20068;-71
2021/01/09 03:05:44;;;;;;;4.05;2.88;;;;;;;;;;5051980;28;20051;-74
2021/01/09 03:08:11;;;;;;;7.47;3.40;;;;;;;;;;5053221;28;20542;-73
2021/01/09 03:10:37;;;;;;;5.13;3.33;;;;;;;;;;5051222;28;20512;-73
2021/01/09 03:13:03;;;;;;;3.80;2.80;;;;;;;;;;5050412;28;20076;-72
2021/01/09 03:15:29;;;;;;;5.15;3.00;;;;;;;;;;5049232;28;20076;-73
2021/01/09 03:17:56;;;;;;;6.50;3.17;;;;;;;;;;5054615;28;20439;-74
2021/01/09 03:20:22;;;;;;;9.32;3.70;;;;;;;;;;5066909;28;20045;-72
2021/01/09 03:22:51;;;;;;;6.60;3.30;;;;;;;;;;5046691;28;20143;-72
2021/01/09 03:25:17;;;;;;;5.13;3.97;;;;;;;;;;5047019;28;20055;-71
2021/01/09 03:27:43;;;;;;;4.53;2.72;;;;;;;;;;5045812;28;20652;-72
2021/01/09 03:30:10;;;;;;;7.78;3.78;;;;;;;;;;5052572;28;20052;-72
2021/01/09 03:32:36;;;;;;;4.97;2.85;;;;;;;;;;5045331;28;20056;-71
2021/01/09 03:35:02;;;;;;;5.30;3.40;;;;;;;;;;5054335;28;20045;-71
2021/01/09 03:37:28;;;;;;;4.60;3.22;;;;;;;;;;5052339;28;20049;-73
2021/01/09 03:39:54;;;;;;;5.63;3.40;;;;;;;;;;5052644;28;20037;-74
2021/01/09 03:42:21;;;;;;;7.75;3.13;;;;;;;;;;5050713;28;20494;-75
2021/01/09 03:44:47;;;;;;;4.28;3.03;;;;;;;;;;5048653;28;20403;-72
2021/01/09 03:47:13;;;;;;;5.65;3.53;;;;;;;;;;5050590;28;20052;-73
2021/01/09 03:49:39;;;;;;;8.10;3.28;;;;;;;;;;5060444;28;20056;-73
2021/01/09 03:52:08;;;;;;;3.88;2.92;;;;;;;;;;5051117;28;20045;-73
2021/01/09 03:54:36;;;;;;;4.85;3.22;;;;;;;;;;5050226;28;20581;-73
2021/01/09 03:57:03;;;;;;;5.72;3.38;;;;;;;;;;5052633;28;20037;-75
2021/01/09 03:59:29;;;;;;;6.38;3.90;;;;;;;;;;5055388;28;20045;-75
2021/01/09 04:01:55;;;;;;;4.43;2.72;;;;;;;;;;5044878;28;20132;-75
2021/01/09 04:04:21;;;;;;;4.50;2.80;;;;;;;;;;5056263;28;20086;-75
2021/01/09 04:06:47;;;;;;;4.38;3.33;;;;;;;;;;5048025;28;20045;-75
2021/01/09 04:09:13;;;;;;;3.92;2.92;;;;;;;;;;5054999;28;20102;-75
2021/01/09 04:11:39;;;;;;;5.45;3.30;;;;;;;;;;5056109;28;20472;-76
2021/01/09 04:14:06;;;;;;;4.80;2.95;;;;;;;;;;5052887;28;20076;-77
2021/01/09 04:16:36;;;;;;;4.22;2.97;;;;;;;;;;5057350;28;20119;-78
2021/01/09 04:19:02;;;;;;;4.65;3.28;;;;;;;;;;5060796;28;20087;-74
2021/01/09 04:21:30;;;;;;;4.05;2.83;;;;;;;;;;5056271;28;20505;-74
2021/01/09 04:23:56;;;;;;;5.30;3.50;;;;;;;;;;5058777;28;20045;-73
2021/01/09 04:26:23;;;;;;;6.25;3.45;;;;;;;;;;5062369;28;20402;-75
2021/01/09 04:28:49;;;;;;;4.32;2.95;;;;;;;;;;5051621;28;20509;-77
2021/01/09 04:31:15;;;;;;;5.60;3.95;;;;;;;;;;5050296;28;20136;-76
2021/01/09 04:33:43;;;;;;;3.88;2.83;;;;;;;;;;5055676;28;20141;-77
2021/01/09 04:36:10;;;;;;;5.40;2.97;;;;;;;;;;5054100;28;20051;-77
2021/01/09 04:38:36;;;;;;;6.82;3.08;;;;;;;;;;5040512;28;20049;-76
2021/01/09 04:41:04;;;;;;;6.07;3.60;;;;;;;;;;5064352;28;20123;-77
2021/01/09 04:43:30;;;;;;;4.55;3.00;;;;;;;;;;5055073;28;20139;-77
2021/01/09 04:46:06;;;;;;;4.45;3.25;;;;;;;;;;5051854;28;20053;-77
2021/01/09 04:48:32;;;;;;;5.05;3.00;;;;;;;;;;5052003;28;20115;-78
2021/01/09 04:50:59;;;;;;;5.07;3.03;;;;;;;;;;5057630;28;20127;-74
2021/01/09 04:53:25;;;;;;;4.82;2.83;;;;;;;;;;5055944;28;20080;-75
2021/01/09 04:55:56;;;;;;;4.70;2.97;;;;;;;;;;5050089;28;20053;-74
2021/01/09 04:58:22;;;;;;;4.60;2.50;;;;;;;;;;5051712;28;20057;-74
2021/01/09 05:00:54;;;;;;;6.88;3.35;;;;;;;;;;5062028;28;20128;-74
2021/01/09 05:03:23;;;;;;;4.93;3.22;;;;;;;;;;5053577;28;20041;-74
2021/01/09 05:05:49;;;;;;;5.38;3.28;;;;;;;;;;5060836;28;20183;-74
2021/01/09 05:08:15;;;;;;;5.22;2.97;;;;;;;;;;5048421;28;20053;-74
2021/01/09 05:10:42;;;;;;;4.60;2.72;;;;;;;;;;5048758;28;20051;-74
2021/01/09 05:13:08;;;;;;;5.63;3.30;;;;;;;;;;5051568;28;20053;-74
2021/01/09 05:15:38;;;;;;;4.72;3.50;;;;;;;;;;5050459;28;20513;-75
2021/01/09 05:18:04;;;;;;;6.53;3.35;;;;;;;;;;5054139;28;20045;-76
2021/01/09 05:20:31;;;;;;;4.82;3.10;;;;;;;;;;5051302;28;20463;-75
2021/01/09 05:23:01;;;;;;;5.18;3.35;;;;;;;;;;5053016;28;20471;-75
2021/01/09 05:25:27;;;;;;;5.60;3.10;;;;;;;;;;5045146;28;22450;-76
2021/01/09 05:27:54;;;;;;;4.82;3.42;;;;;;;;;;5051250;28;20127;-75
2021/01/09 05:30:21;;;;;;;8.50;3.17;;;;;;;;;;5049457;28;20064;-76
2021/01/09 05:32:51;;;;;;;4.15;3.10;;;;;;;;;;5055048;28;20072;-76
2021/01/09 05:35:17;;;;;;;4.38;3.00;;;;;;;;;;5057296;28;20135;-76
2021/01/09 05:37:50;;;;;;;5.68;3.50;;;;;;;;;;5053343;28;20056;-76
2021/01/09 05:40:17;;;;;;;4.38;2.70;;;;;;;;;;5047851;28;20458;-76
2021/01/09 05:42:43;;;;;;;5.22;3.00;;;;;;;;;;5047354;28;20084;-76
2021/01/09 05:45:10;;;;;;;9.32;2.95;;;;;;;;;;5050766;28;20102;-76
2021/01/09 05:47:37;;;;;;;8.02;3.17;;;;;;;;;;5050215;28;20463;-76
2021/01/09 05:50:04;;;;;;;4.35;3.05;;;;;;;;;;5055290;28;20392;-76
2021/01/09 05:52:34;;;;;;;4.78;3.10;;;;;;;;;;5052187;28;20052;-77
2021/01/09 05:55:00;;;;;;;;;;;;;;;;;;5051389;28;20179;-77
2021/01/09 05:57:30;;;;;;;6.00;2.67;;;;;;;;;;5050917;28;20301;-77
2021/01/09 05:59:57;;;;;;;4.57;2.80;;;;;;;;;;5045489;28;20045;-76
2021/01/09 06:02:25;;;;;;;3.35;2.40;;;;;;;;;;5052931;28;20049;-78
2021/01/09 06:04:55;;;;;;;6.40;3.08;;;;;;;;;;5052341;28;20053;-78
2021/01/09 06:07:32;;;;;;;5.43;2.80;;;;;;;;;;5053160;28;20464;-77
2021/01/09 06:10:12;;;;;;;4.47;2.88;;;;;;;;;;5056635;28;20045;-75
2021/01/09 06:13:01;;;;;;;3.57;2.63;;;;;;;;;;5051388;28;20048;-75
2021/01/09 06:15:29;;;;;;;6.60;2.80;;;;;;;;;;5048024;28;20306;-75
2021/01/09 06:17:57;;;;;;;;;;;;;;;;;;5055177;28;20051;-75
2021/01/09 06:20:25;;;;;;;5.53;3.55;;;;;;;;;;5048241;28;19929;-74
2021/01/09 06:22:52;;;;;;;5.93;3.00;;;;;;;;;;5053061;28;20210;-74
2021/01/09 06:25:19;;;;;;;4.90;3.03;;;;;;;;;;5050572;28;20152;-74
2021/01/09 06:27:48;;;;;;;4.47;2.55;;;;;;;;;;5054156;28;20159;-74
2021/01/09 06:30:18;;;;;;;4.45;2.50;;;;;;;;;;5058278;28;20471;-74
2021/01/09 06:32:49;;;;;;;3.72;2.60;;;;;;;;;;5057208;28;20048;-75
2021/01/09 06:35:15;;;;;;;3.47;2.80;;;;;;;;;;5049963;28;20070;-75
2021/01/09 06:37:42;;;;;;;5.55;3.53;;;;;;;;;;5049854;28;20076;-74
2021/01/09 06:40:09;;;;;;;6.22;3.42;;;;;;;;;;5062082;28;20076;-73
2021/01/09 06:42:37;;;;;;;4.72;3.13;;;;;;;;;;5054174;28;20135;-76
2021/01/09 06:45:04;;;;;;;4.32;2.45;;;;;;;;;;5049424;28;20057;-74
2021/01/09 06:47:32;;;;;;;4.95;2.60;;;;;;;;;;5051409;28;20088;-74
2021/01/09 06:50:18;;;;;;;4.03;2.78;;;;;;;;;;5052386;28;20545;-74
2021/01/09 06:52:53;;;;;;;5.07;2.88;;;;;;;;;;5057401;28;20132;-75
2021/01/09 06:55:39;;;;;;;3.47;2.60;;;;;;;;;;5055437;28;20051;-78
2021/01/09 06:58:09;;;;;;;4.70;2.70;;;;;;;;;;5060567;28;20040;-77
2021/01/09 07:00:36;;;;;;;5.20;2.50;;;;;;;;;;5080018;28;20051;-81
2021/01/09 07:03:15;;;;;;;7.20;3.30;;;;;;;;;;5094269;28;20068;-76
2021/01/09 07:05:42;;;;;;;5.78;2.65;;;;;;;;;;5084071;28;20075;-77
2021/01/09 07:08:08;;;;;;;3.85;2.80;;;;;;;;;;5086974;28;20044;-76
2021/01/09 07:10:53;;;;;;;5.20;2.88;;;;;;;;;;5086062;28;20146;-76
2021/01/09 07:13:20;;;;;;;4.78;2.95;;;;;;;;;;5086694;28;20572;-76
2021/01/09 07:16:04;;;;;;;5.18;2.13;;;;;;;;;;5094972;28;20048;-83
2021/01/09 07:18:31;;;;;;;4.57;2.83;;;;;;;;;;5094872;28;20051;-80
2021/01/09 07:20:58;;;;;;;5.22;2.47;;;;;;;;;;5092120;28;20035;-81
2021/01/09 07:23:26;;;;;;;4.65;2.65;;;;;;;;;;5090778;28;20083;-78
2021/01/09 07:25:56;;;;;;;5.40;3.88;;;;;;;;;;5087436;28;20075;-77
2021/01/09 07:28:23;;;;;;;4.38;2.47;;;;;;;;;;5085953;28;20047;-77
2021/01/09 07:31:08;;;;;;;4.25;2.40;;;;;;;;;;5086740;28;20135;-78
2021/01/09 07:33:36;;;;;;;5.25;2.53;;;;;;;;;;5093109;28;20138;-76
2021/01/09 07:36:03;;;;;;;3.58;2.45;;;;;;;;;;5086241;28;20048;-77
2021/01/09 07:38:30;;;;;;;4.97;3.47;;;;;;;;;;5067252;28;20051;-78
2021/01/09 07:40:57;;;;;;;3.90;2.58;;;;;;;;;;5086243;28;20482;-72
2021/01/09 07:43:34;;;;;;;4.75;2.67;;;;;;;;;;5090333;28;20120;-74
2021/01/09 07:46:01;;;;;;;4.75;2.60;;;;;;;;;;5086845;28;20055;-73
2021/01/09 07:48:37;;;;;;;5.03;3.13;;;;;;;;;;5071244;28;20044;-74
2021/01/09 07:51:03;;;;;;;5.60;2.88;;;;;;;;;;5090758;28;20055;-73
2021/01/09 07:53:29;;;;;;;3.25;2.90;;;;;;;;;;5094227;28;20050;-73
2021/01/09 07:55:57;;;;;;;3.72;2.38;;;;;;;;;;5074565;28;20050;-72
2021/01/09 07:58:43;;;;;;;6.15;2.80;;;;;;;;;;5088994;28;20094;-72
2021/01/09 08:01:10;;;;;;;5.55;3.15;;;;;;;;;;5083914;28;20106;-75
2021/01/09 08:03:39;;;;;;;4.25;2.80;;;;;;;;;;5065962;28;20041;-72
2021/01/09 08:06:05;;;;;;;4.00;2.53;;;;;;;;;;5090578;28;20098;-72
2021/01/09 08:08:32;;;;;;;4.93;2.58;;;;;;;;;;5086762;28;20076;-74
2021/01/09 08:11:04;;;;;;;5.07;2.72;;;;;;;;;;5076697;28;20044;-74
2021/01/09 08:13:30;;;;;;;4.35;2.88;;;;;;;;;;5086932;28;20048;-76
2021/01/09 08:15:57;;;;;;;4.40;3.33;;;;;;;;;;5081930;28;20143;-77
2021/01/09 08:18:25;;;;;;;4.13;2.95;;;;;;;;;;5083997;28;20101;-75
2021/01/09 08:20:59;;;;;;;4.30;2.95;;;;;;;;;;5088675;28;20048;-77
2021/01/09 08:23:26;;;;;;;4.40;3.08;;;;;;;;;;5085409;28;20048;-76
2021/01/09 08:25:53;;;;;;;5.35;3.83;;;;;;;;;;5076997;28;20051;-81
2021/01/09 08:28:20;;;;;;;7.75;3.78;;;;;;;;;;5070868;28;20051;-81
2021/01/09 08:30:46;;;;;;;5.38;3.70;;;;;;;;;;5085840;28;20143;-85
2021/01/09 08:33:16;;;;;;;5.65;3.65;;;;;;;;;;5086242;28;20117;-71
2021/01/09 08:35:46;;;;;;;5.07;3.13;;;;;;;;;;5093459;28;20048;-83
2021/01/09 08:38:12;;;;;;;5.47;3.40;;;;;;;;;;5086665;28;20077;-88
2021/01/09 08:40:38;;;;;;;5.97;3.40;;;;;;;;;;5087001;28;20059;-84
2021/01/09 08:43:09;;;;;;;4.53;3.08;;;;;;;;;;5085749;28;20135;-80
2021/01/09 08:45:35;;;;;;;7.07;3.55;;;;;;;;;;5086571;28;20044;-80
2021/01/09 08:48:07;;;;;;;7.15;3.72;;;;;;;;;;5088622;28;20052;-88
2021/01/09 08:50:34;;;;;;;8.93;3.85;;;;;;;;;;5060406;28;20413;-90
2021/01/09 08:53:02;;;;;;;7.43;3.60;;;;;;;;;;5088617;28;20115;-80
2021/01/09 08:55:31;;;;;;;8.02;4.00;;;;;;;;;;5088619;28;20126;-76
2021/01/09 08:57:59;;;;;;;6.70;4.00;;;;;;;;;;5092040;28;20060;-75
2021/01/09 09:00:29;;;;;;;8.57;4.93;;;;;;;;;;5069257;28;20047;-76
2021/01/09 09:02:58;;;;;;;6.57;4.20;;;;;;;;;;5087739;28;20043;-76
2021/01/09 09:05:26;;;;;;;8.73;4.50;;;;;;;;;;5094309;28;20057;-77
2021/01/09 09:07:55;;;;;;;6.28;3.92;;;;;;;;;;5086767;28;20044;-76
2021/01/09 09:10:22;;;;;;;8.27;5.18;;;;;;;;;;5080645;28;20255;-76
2021/01/09 09:12:48;;;;;;;8.50;4.28;;;;;;;;;;5093548;28;20051;-76
2021/01/09 09:15:25;;;;;;;9.88;4.50;;;;;;;;;;5091869;28;20072;-76
2021/01/09 09:17:52;;;;;;;6.95;4.45;;;;;;;;;;5085474;28;20058;-76
2021/01/09 09:20:18;;;;;;;7.90;4.53;;;;;;;;;;5085828;28;20102;-76
2021/01/09 09:22:44;;;;;;;7.93;4.68;;;;;;;;;;5071156;28;20135;-77
2021/01/09 09:25:21;;;;;;;7.30;4.50;;;;;;;;;;5089303;28;20083;-76
2021/01/09 09:27:48;;;;;;;8.60;4.68;;;;;;;;;;5075384;28;20490;-73
2021/01/09 09:30:17;;;;;;;7.57;4.30;;;;;;;;;;5090912;28;20054;-73
2021/01/09 09:32:46;;;;;;;12.10;5.80;;;;;;;;;;5072558;28;20054;-75
2021/01/09 09:35:26;;;;;;;8.57;4.65;;;;;;;;;;5087916;28;20579;-76
2021/01/09 09:37:54;;;;;;;8.40;4.78;;;;;;;;;;5084877;28;20131;-75
2021/01/09 09:40:20;;;;;;;8.63;4.95;;;;;;;;;;5090104;28;20455;-76
2021/01/09 09:42:46;;;;;;;7.18;4.97;;;;;;;;;;5088586;28;20039;-77
2021/01/09 09:45:13;;;;;;;9.38;5.35;;;;;;;;;;5088184;28;20070;-76
2021/01/09 09:47:44;;;;;;;9.57;4.50;;;;;;;;;;5093578;28;20537;-77
2021/01/09 09:50:12;;;;;;;11.75;5.38;;;;;;;;;;5089867;28;20052;-77
2021/01/09 09:52:39;;;;;;;15.02;6.68;;;;;;;;;;5090957;28;20043;-78
2021/01/09 09:55:06;;;;;;;13.23;6.97;;;;;;;;;;5092433;28;20056;-76
2021/01/09 09:57:32;;;;;;;15.02;8.32;;;;;;;;;;5091789;28;20040;-77
2021/01/09 10:00:11;;;;;;;15.60;7.72;;;;;;;;;;5068030;28;20147;-76
2021/01/09 10:02:55;;;;;;;20.48;9.20;;;;;;;;;;5084282;28;20048;-77
2021/01/09 10:05:21;;;;;;;14.25;7.43;;;;;;;;;;5075959;28;20170;-78
2021/01/09 10:07:47;;;;;;;14.57;8.32;;;;;;;;;;5086497;28;20497;-82
2021/01/09 10:10:15;;;;;;;13.48;7.10;;;;;;;;;;5091355;28;20150;-79
2021/01/09 10:12:41;;;;;;;16.60;7.97;;;;;;;;;;5088190;28;20048;-70
2021/01/09 10:15:10;;;;;;;17.23;8.55;;;;;;;;;;5094297;28;20554;-70
2021/01/09 10:17:38;;;;;;;18.35;7.78;;;;;;;;;;5087129;28;20040;-70
2021/01/09 10:20:05;;;;;;;16.00;8.18;;;;;;;;;;5068295;28;20126;-70
2021/01/09 10:22:31;;;;;;;19.45;8.10;;;;;;;;;;5103865;28;20040;-69
2021/01/09 10:24:57;;;;;;;13.38;7.57;;;;;;;;;;5092278;28;20053;-71
2021/01/09 10:27:24;;;;;;;15.38;6.72;;;;;;;;;;5098081;28;20047;-71
2021/01/09 10:29:50;;;;;;;11.68;7.35;;;;;;;;;;5101646;28;20410;-72
2021/01/09 10:32:17;;;;;;;12.93;8.00;;;;;;;;;;5090534;28;20722;-69
2021/01/09 10:34:43;;;;;;;14.40;7.07;;;;;;;;;;5070494;28;20070;-73
2021/01/09 10:37:10;;;;;;;17.52;6.88;;;;;;;;;;5094906;28;20043;-70
2021/01/09 10:39:42;;;;;;;16.08;7.10;;;;;;;;;;5070755;28;20133;-72
2021/01/09 10:42:08;;;;;;;15.98;7.47;;;;;;;;;;5082092;28;20493;-73
2021/01/09 10:44:35;;;;;;;12.10;6.18;;;;;;;;;;5095642;28;20162;-72
2021/01/09 10:47:01;;;;;;;10.40;6.63;;;;;;;;;;5089035;28;20147;-70
2021/01/09 10:49:41;;;;;;;11.25;5.40;;;;;;;;;;5082273;28;20075;-70
2021/01/09 10:52:07;;;;;;;12.75;5.45;;;;;;;;;;5083115;28;20622;-70
2021/01/09 10:54:34;;;;;;;10.45;5.70;;;;;;;;;;5085585;28;20557;-71
2021/01/09 10:57:00;;;;;;;11.30;5.65;;;;;;;;;;5082688;28;20044;-72
2021/01/09 10:59:26;;;;;;;8.20;5.03;;;;;;;;;;5078708;28;20133;-74
2021/01/09 11:01:55;;;;;;;12.80;6.20;;;;;;;;;;5090251;28;20069;-73
2021/01/09 11:04:25;;;;;;;14.05;5.45;;;;;;;;;;5067332;28;20051;-72
2021/01/09 11:06:56;;;;;;;10.60;5.05;;;;;;;;;;5084371;28;20077;-73
2021/01/09 11:09:22;;;;;;;11.82;5.30;;;;;;;;;;5090916;28;20602;-71
2021/01/09 11:11:53;;;;;;;15.13;4.93;;;;;;;;;;5082887;28;20108;-70
2021/01/09 11:14:20;;;;;;;10.93;5.20;;;;;;;;;;5091799;28;20131;-69
2021/01/09 11:16:46;;;;;;;9.85;5.85;;;;;;;;;;5088853;28;20424;-70
2021/01/09 11:19:12;;;;;;;10.38;5.30;;;;;;;;;;5090761;28;20039;-70
2021/01/09 11:21:38;;;;;;;11.27;5.57;;;;;;;;;;5096724;28;20139;-69
2021/01/09 11:24:05;;;;;;;13.07;4.55;;;;;;;;;;5072828;28;20420;-70
2021/01/09 11:26:31;;;;;;;10.80;4.63;;;;;;;;;;5089543;28;20058;-69
2021/01/09 11:29:06;;;;;;;10.48;5.13;;;;;;;;;;5090856;28;20080;-70
2021/01/09 11:31:32;;;;;;;10.02;4.65;;;;;;;;;;5089610;28;20054;-70
2021/01/09 11:33:59;;;;;;;8.27;4.00;;;;;;;;;;5092723;28;20048;-70
2021/01/09 11:36:26;;;;;;;9.57;4.82;;;;;;;;;;5099295;28;20056;-69
2021/01/09 11:38:53;;;;;;;7.97;4.40;;;;;;;;;;5090394;28;20048;-70
2021/01/09 11:41:19;;;;;;;8.82;3.97;;;;;;;;;;5066181;28;20048;-69
2021/01/09 11:43:45;;;;;;;8.85;5.00;;;;;;;;;;5088153;28;20048;-70
2021/01/09 11:46:12;;;;;;;6.93;4.47;;;;;;;;;;5096421;28;20040;-70
2021/01/09 11:48:42;;;;;;;8.15;4.00;;;;;;;;;;5091963;28;20149;-70
2021/01/09 11:51:08;;;;;;;8.27;4.35;;;;;;;;;;5098502;28;20055;-70
2021/01/09 11:53:34;;;;;;;9.15;4.47;;;;;;;;;;5092092;28;20151;-69
2021/01/09 11:56:00;;;;;;;7.22;3.85;;;;;;;;;;5087884;28;20067;-69
2021/01/09 11:58:26;;;;;;;5.65;3.83;;;;;;;;;;5092170;28;20047;-69
2021/01/09 12:00:53;;;;;;;7.47;4.10;;;;;;;;;;5092386;28;20044;-70
2021/01/09 12:03:19;;;;;;;5.60;3.80;;;;;;;;;;5101109;28;20437;-70
2021/01/09 12:05:46;;;;;;;7.38;4.13;;;;;;;;;;5090208;28;20135;-69
2021/01/09 12:08:12;;;;;;;14.70;3.63;;;;;;;;;;5091661;28;20054;-70
2021/01/09 12:10:40;;;;;;;5.95;3.47;;;;;;;;;;5089951;28;20048;-69
2021/01/09 12:13:07;;;;;;;6.13;3.60;;;;;;;;;;5094109;28;20101;-69
2021/01/09 12:15:33;;;;;;;5.00;3.63;;;;;;;;;;5096297;28;20048;-69
2021/01/09 12:18:00;;;;;;;6.75;4.30;;;;;;;;;;5082852;28;20374;-69
2021/01/09 12:20:26;;;;;;;6.25;3.50;;;;;;;;;;5078560;28;20059;-69
2021/01/09 12:22:52;;;;;;;6.70;4.25;;;;;;;;;;5079911;28;20059;-71
2021/01/09 12:25:19;;;;;;;8.77;3.97;;;;;;;;;;5088669;28;20052;-75
2021/01/09 12:27:45;;;;;;;10.73;4.78;;;;;;;;;;5065549;28;20044;-71
2021/01/09 12:30:14;;;;;;;12.95;4.43;;;;;;;;;;5084908;28;20148;-71
2021/01/09 12:32:42;;;;;;;8.00;4.20;;;;;;;;;;5091594;28;20497;-70
2021/01/09 12:35:08;;;;;;;14.23;4.25;;;;;;;;;;5097082;28;20044;-70
2021/01/09 12:37:34;;;;;;;7.43;3.90;;;;;;;;;;5090342;28;20060;-70
2021/01/09 12:40:01;;;;;;;6.70;4.03;;;;;;;;;;5086791;28;20389;-71
2021/01/09 12:42:28;;;;;;;9.10;3.97;;;;;;;;;;5088335;28;20109;-71
2021/01/09 12:44:54;;;;;;;8.18;3.97;;;;;;;;;;5072903;28;20056;-70
2021/01/09 12:47:23;;;;;;;5.88;3.45;;;;;;;;;;5088948;28;20060;-70
2021/01/09 12:49:49;;;;;;;10.75;4.07;;;;;;;;;;5091548;28;20094;-70
2021/01/09 12:52:15;;;;;;;7.28;4.07;;;;;;;;;;5096142;28;20042;-70
2021/01/09 12:54:42;;;;;;;10.23;4.40;;;;;;;;;;5096433;28;20075;-71
2021/01/09 12:57:08;;;;;;;7.50;3.92;;;;;;;;;;5093170;28;20037;-71
2021/01/09 12:59:37;;;;;;;6.78;3.40;;;;;;;;;;5092612;28;20086;-71
2021/01/09 13:02:03;;;;;;;6.88;3.95;;;;;;;;;;5075535;28;20511;-70
2021/01/09 13:04:29;;;;;;;8.27;4.30;;;;;;;;;;5086120;28;20052;-70
2021/01/09 13:06:58;;;;;;;5.00;3.58;;;;;;;;;;5086766;28;20040;-70
2021/01/09 13:09:26;;;;;;;6.75;4.05;;;;;;;;;;5088239;28;20150;-71
2021/01/09 13:11:55;;;;;;;7.18;4.10;;;;;;;;;;5070940;28;20126;-77
2021/01/09 13:14:22;;;;;;;8.80;4.03;;;;;;;;;;5082856;28;20640;-81
2021/01/09 13:16:52;;;;;;;8.23;4.10;;;;;;;;;;5071535;28;20451;-76
2021/01/09 13:19:20;;;;;;;7.63;4.10;;;;;;;;;;5089939;28;20059;-76
2021/01/09 13:21:48;;;;;;;6.28;3.97;;;;;;;;;;5071980;28;20570;-76
2021/01/09 13:24:14;;;;;;;9.60;4.95;;;;;;;;;;5089282;28;20070;-76
2021/01/09 13:26:41;;;;;;;7.60;4.70;;;;;;;;;;5090253;28;20068;-78
2021/01/09 13:29:09;;;;;;;10.85;4.25;;;;;;;;;;5090197;28;20044;-74
2021/01/09 13:31:36;;;;;;;6.53;4.03;;;;;;;;;;5090302;28;20481;-74
2021/01/09 13:34:03;;;;;;;7.22;4.50;;;;;;;;;;5098872;28;20092;-76
2021/01/09 13:36:32;;;;;;;9.60;4.35;;;;;;;;;;5093410;28;20051;-76
2021/01/09 13:39:03;;;;;;;9.20;4.68;;;;;;;;;;5085206;28;20043;-76
2021/01/09 13:41:30;;;;;;;5.95;3.97;;;;;;;;;;5085583;28;20056;-75
2021/01/09 13:43:56;;;;;;;9.75;4.30;;;;;;;;;;5085003;28;20078;-75
2021/01/09 13:46:29;;;;;;;9.10;5.22;;;;;;;;;;5090883;28;20493;-75
2021/01/09 13:49:00;;;;;;;6.25;4.00;;;;;;;;;;5085988;28;20075;-75
2021/01/09 13:51:31;;;;;;;8.15;4.50;;;;;;;;;;5087618;28;20056;-76
2021/01/09 13:53:59;;;;;;;7.05;3.80;;;;;;;;;;5088236;28;20606;-75
2021/01/09 13:56:36;;;;;;;7.88;4.32;;;;;;;;;;5084637;28;20051;-76
2021/01/09 13:59:05;;;;;;;6.93;4.00;;;;;;;;;;5087859;28;20039;-76
2021/01/09 14:01:35;;;;;;;;;;;;;;;;;;5090815;28;20052;-76
2021/01/09 14:04:02;;;;;;;5.93;3.75;;;;;;;;;;5092273;28;19974;-75
2021/01/09 14:06:29;;;;;;;9.30;4.35;;;;;;;;;;5093175;28;20169;-75
2021/01/09 14:08:55;;;;;;;5.40;3.55;;;;;;;;;;5098464;28;20052;-74
2021/01/09 14:11:22;;;;;;;6.43;4.15;;;;;;;;;;5092979;28;20135;-74
2021/01/09 14:13:48;;;;;;;6.38;4.10;;;;;;;;;;5089286;28;20123;-76
2021/01/09 14:16:27;;;;;;;7.60;4.10;;;;;;;;;;5099187;28;20488;-77
2021/01/09 14:18:53;;;;;;;6.72;4.38;;;;;;;;;;5086960;28;20393;-76
2021/01/09 14:21:22;;;;;;;6.60;4.30;;;;;;;;;;5092904;28;20055;-76
2021/01/09 14:23:49;;;;;;;6.90;3.85;;;;;;;;;;5089421;28;20101;-78
2021/01/09 14:26:15;;;;;;;7.40;3.92;;;;;;;;;;5097218;28;20127;-78
2021/01/09 14:28:41;;;;;;;10.23;4.90;;;;;;;;;;5088186;28;20040;-76
2021/01/09 14:31:07;;;;;;;7.57;4.22;;;;;;;;;;5089889;28;20043;-76
2021/01/09 14:33:34;;;;;;;6.72;4.15;;;;;;;;;;5089607;28;20621;-76
2021/01/09 14:36:00;;;;;;;9.32;4.38;;;;;;;;;;5085413;28;20133;-76
2021/01/09 14:38:29;;;;;;;6.07;3.50;;;;;;;;;;5091419;28;20039;-75
2021/01/09 14:40:56;;;;;;;7.00;4.03;;;;;;;;;;5090535;28;20044;-75
2021/01/09 14:43:23;;;;;;;7.03;3.65;;;;;;;;;;5095630;28;20330;-77
2021/01/09 14:45:52;;;;;;;8.73;4.65;;;;;;;;;;5084773;28;20051;-79
2021/01/09 14:48:20;;;;;;;6.28;3.83;;;;;;;;;;5089141;28;20501;-78